sensor_id;sensor_type;location;lat;lon;timestamp;temperature;humidity
9033;DHT22;4551;53.164;8.210;2023-08-24T00:00:59;19.60;99.90
9033;DHT22;4551;53.164;8.210;2023-08-24T00:03:27;19.60;99.90
9033;DHT22;4551;53.164;8.210;2023-08-24T00:05:55;19.60;99.90
9033;DHT22;4551;53.164;8.210;2023-08-24T00:08:24;19.50;99.90
9033;DHT22;4551;53.164;8.210;2023-08-24T00:10:52;19.50;99.90
9033;DHT22;4551;53.164;8.210;2023-08-24T00:13:21;19.40;99.90
9033;DHT22;4551;53.164;8.210;2023-08-24T00:15:49;19.40;99.90
9033;DHT22;4551;53.164;8.210;2023-08-24T00:18:18;19.40;99.90
9033;DHT22;4551;53.164;8.210;2023-08-24T00:20:48;19.30;99.90
9033;DHT22;4551;53.164;8.210;2023-08-24T00:23:16;19.30;99.90
9033;DHT22;4551;53.164;8.210;2023-08-24T00:25:46;19.30;99.90
9033;DHT22;4551;53.164;8.210;2023-08-24T00:28:14;19.20;99.90
9033;DHT22;4551;53.164;8.210;2023-08-24T00:30:42;19.20;99.90
9033;DHT22;4551;53.164;8.210;2023-08-24T00:33:10;19.20;99.90
9033;DHT22;4551;53.164;8.210;2023-08-24T00:35:38;19.20;99.90
9033;DHT22;4551;53.164;8.210;2023-08-24T00:38:06;19.10;99.90
9033;DHT22;4551;53.164;8.210;2023-08-24T00:40:34;19.10;99.90
9033;DHT22;4551;53.164;8.210;2023-08-24T00:43:03;19.10;99.90
9033;DHT22;4551;53.164;8.210;2023-08-24T00:45:32;19.10;99.90
9033;DHT22;4551;53.164;8.210;2023-08-24T00:48:01;19.00;99.90
9033;DHT22;4551;53.164;8.210;2023-08-24T00:50:29;18.90;99.90
9033;DHT22;4551;53.164;8.210;2023-08-24T00:52:57;18.80;99.90
9033;DHT22;4551;53.164;8.210;2023-08-24T00:55:26;18.80;99.90
9033;DHT22;4551;53.164;8.210;2023-08-24T00:57:54;18.80;99.90
9033;DHT22;4551;53.164;8.210;2023-08-24T01:00:24;18.70;99.90
9033;DHT22;4551;53.164;8.210;2023-08-24T01:02:52;18.80;99.90
9033;DHT22;4551;53.164;8.210;2023-08-24T01:05:20;18.70;99.90
9033;DHT22;4551;53.164;8.210;2023-08-24T01:07:48;18.70;99.90
9033;DHT22;4551;53.164;8.210;2023-08-24T01:10:19;18.70;99.90
9033;DHT22;4551;53.164;8.210;2023-08-24T01:12:52;18.70;99.90
9033;DHT22;4551;53.164;8.210;2023-08-24T01:15:26;18.70;99.90
9033;DHT22;4551;53.164;8.210;2023-08-24T01:18:03;18.70;99.90
9033;DHT22;4551;53.164;8.210;2023-08-24T01:20:32;18.60;99.90
9033;DHT22;4551;53.164;8.210;2023-08-24T01:23:04;18.60;99.90
9033;DHT22;4551;53.164;8.210;2023-08-24T01:25:37;18.50;99.90
9033;DHT22;4551;53.164;8.210;2023-08-24T01:28:14;18.40;99.90
9033;DHT22;4551;53.164;8.210;2023-08-24T01:30:42;18.40;99.90
9033;DHT22;4551;53.164;8.210;2023-08-24T01:33:11;18.40;99.90
9033;DHT22;4551;53.164;8.210;2023-08-24T01:35:40;18.40;99.90
9033;DHT22;4551;53.164;8.210;2023-08-24T01:38:08;18.40;99.90
9033;DHT22;4551;53.164;8.210;2023-08-24T01:40:43;18.30;99.90
9033;DHT22;4551;53.164;8.210;2023-08-24T01:43:14;18.30;99.90
9033;DHT22;4551;53.164;8.210;2023-08-24T01:45:51;18.30;99.90
9033;DHT22;4551;53.164;8.210;2023-08-24T01:48:19;18.20;99.90
9033;DHT22;4551;53.164;8.210;2023-08-24T01:50:48;18.20;99.90
9033;DHT22;4551;53.164;8.210;2023-08-24T01:53:16;18.20;99.90
9033;DHT22;4551;53.164;8.210;2023-08-24T01:55:45;18.10;99.90
9033;DHT22;4551;53.164;8.210;2023-08-24T01:58:14;18.10;99.90
9033;DHT22;4551;53.164;8.210;2023-08-24T02:00:42;18.10;99.90
9033;DHT22;4551;53.164;8.210;2023-08-24T02:03:10;18.00;99.90
9033;DHT22;4551;53.164;8.210;2023-08-24T02:05:38;18.00;99.90
9033;DHT22;4551;53.164;8.210;2023-08-24T02:08:06;18.00;99.90
9033;DHT22;4551;53.164;8.210;2023-08-24T02:10:34;18.00;99.90
9033;DHT22;4551;53.164;8.210;2023-08-24T02:13:03;18.00;99.90
9033;DHT22;4551;53.164;8.210;2023-08-24T02:15:32;17.90;99.90
9033;DHT22;4551;53.164;8.210;2023-08-24T02:18:00;17.90;99.90
9033;DHT22;4551;53.164;8.210;2023-08-24T02:20:28;17.80;99.90
9033;DHT22;4551;53.164;8.210;2023-08-24T02:22:56;17.80;99.90
9033;DHT22;4551;53.164;8.210;2023-08-24T02:25:24;17.80;99.90
9033;DHT22;4551;53.164;8.210;2023-08-24T02:27:52;17.80;99.90
9033;DHT22;4551;53.164;8.210;2023-08-24T02:30:20;17.80;99.90
9033;DHT22;4551;53.164;8.210;2023-08-24T02:32:50;17.70;99.90
9033;DHT22;4551;53.164;8.210;2023-08-24T02:35:18;17.70;99.90
9033;DHT22;4551;53.164;8.210;2023-08-24T02:37:46;17.70;99.90
9033;DHT22;4551;53.164;8.210;2023-08-24T02:40:16;17.70;99.90
9033;DHT22;4551;53.164;8.210;2023-08-24T02:42:44;17.60;99.90
9033;DHT22;4551;53.164;8.210;2023-08-24T02:45:12;17.60;99.90
9033;DHT22;4551;53.164;8.210;2023-08-24T02:47:40;17.60;99.90
9033;DHT22;4551;53.164;8.210;2023-08-24T02:50:10;17.60;99.90
9033;DHT22;4551;53.164;8.210;2023-08-24T02:52:38;17.50;99.90
9033;DHT22;4551;53.164;8.210;2023-08-24T02:55:07;17.50;99.90
9033;DHT22;4551;53.164;8.210;2023-08-24T02:57:35;17.50;99.90
9033;DHT22;4551;53.164;8.210;2023-08-24T03:00:04;17.50;99.90
9033;DHT22;4551;53.164;8.210;2023-08-24T03:02:33;17.50;99.90
9033;DHT22;4551;53.164;8.210;2023-08-24T03:05:01;17.50;99.90
9033;DHT22;4551;53.164;8.210;2023-08-24T03:07:31;17.50;99.90
9033;DHT22;4551;53.164;8.210;2023-08-24T03:09:59;17.50;99.90
9033;DHT22;4551;53.164;8.210;2023-08-24T03:12:27;17.50;99.90
9033;DHT22;4551;53.164;8.210;2023-08-24T03:14:55;17.50;99.90
9033;DHT22;4551;53.164;8.210;2023-08-24T03:17:23;17.50;99.90
9033;DHT22;4551;53.164;8.210;2023-08-24T03:19:51;17.50;99.90
9033;DHT22;4551;53.164;8.210;2023-08-24T03:22:19;17.50;99.90
9033;DHT22;4551;53.164;8.210;2023-08-24T03:24:48;17.40;99.90
9033;DHT22;4551;53.164;8.210;2023-08-24T03:27:16;17.40;99.90
9033;DHT22;4551;53.164;8.210;2023-08-24T03:29:44;17.40;99.90
9033;DHT22;4551;53.164;8.210;2023-08-24T03:32:13;17.40;99.90
9033;DHT22;4551;53.164;8.210;2023-08-24T03:34:41;17.40;99.90
9033;DHT22;4551;53.164;8.210;2023-08-24T03:37:09;17.40;99.90
9033;DHT22;4551;53.164;8.210;2023-08-24T03:39:37;17.50;99.90
9033;DHT22;4551;53.164;8.210;2023-08-24T03:42:07;17.40;99.90
9033;DHT22;4551;53.164;8.210;2023-08-24T03:44:35;17.40;99.90
9033;DHT22;4551;53.164;8.210;2023-08-24T03:47:03;17.40;99.90
9033;DHT22;4551;53.164;8.210;2023-08-24T03:49:31;17.40;99.90
9033;DHT22;4551;53.164;8.210;2023-08-24T03:51:59;17.40;99.90
9033;DHT22;4551;53.164;8.210;2023-08-24T03:54:27;17.40;99.90
9033;DHT22;4551;53.164;8.210;2023-08-24T03:56:56;17.40;99.90
9033;DHT22;4551;53.164;8.210;2023-08-24T03:59:25;17.40;99.90
9033;DHT22;4551;53.164;8.210;2023-08-24T04:01:54;17.40;99.90
9033;DHT22;4551;53.164;8.210;2023-08-24T04:04:22;17.40;99.90
9033;DHT22;4551;53.164;8.210;2023-08-24T04:06:50;17.50;99.90
9033;DHT22;4551;53.164;8.210;2023-08-24T04:09:18;17.40;99.90
9033;DHT22;4551;53.164;8.210;2023-08-24T04:11:46;17.40;99.90
9033;DHT22;4551;53.164;8.210;2023-08-24T04:14:14;17.40;99.90
9033;DHT22;4551;53.164;8.210;2023-08-24T04:16:44;17.40;99.90
9033;DHT22;4551;53.164;8.210;2023-08-24T04:19:12;17.40;99.90
9033;DHT22;4551;53.164;8.210;2023-08-24T04:21:40;17.40;99.90
9033;DHT22;4551;53.164;8.210;2023-08-24T04:24:08;17.40;99.90
9033;DHT22;4551;53.164;8.210;2023-08-24T04:26:36;17.40;99.90
9033;DHT22;4551;53.164;8.210;2023-08-24T04:29:04;17.40;99.90
9033;DHT22;4551;53.164;8.210;2023-08-24T04:31:32;17.40;99.90
9033;DHT22;4551;53.164;8.210;2023-08-24T04:34:01;17.40;99.90
9033;DHT22;4551;53.164;8.210;2023-08-24T04:36:30;17.40;99.90
9033;DHT22;4551;53.164;8.210;2023-08-24T04:38:58;17.40;99.90
9033;DHT22;4551;53.164;8.210;2023-08-24T04:41:27;17.40;99.90
9033;DHT22;4551;53.164;8.210;2023-08-24T04:43:55;17.40;99.90
9033;DHT22;4551;53.164;8.210;2023-08-24T04:46:23;17.40;99.90
9033;DHT22;4551;53.164;8.210;2023-08-24T04:48:51;17.40;99.90
9033;DHT22;4551;53.164;8.210;2023-08-24T04:51:20;17.40;99.90
9033;DHT22;4551;53.164;8.210;2023-08-24T04:53:48;17.50;99.90
9033;DHT22;4551;53.164;8.210;2023-08-24T04:56:16;17.50;99.90
9033;DHT22;4551;53.164;8.210;2023-08-24T04:58:51;17.50;99.90
9033;DHT22;4551;53.164;8.210;2023-08-24T05:01:20;17.50;99.90
9033;DHT22;4551;53.164;8.210;2023-08-24T05:03:49;17.50;99.90
9033;DHT22;4551;53.164;8.210;2023-08-24T05:06:17;17.50;99.90
9033;DHT22;4551;53.164;8.210;2023-08-24T05:08:47;17.50;99.90
9033;DHT22;4551;53.164;8.210;2023-08-24T05:11:16;17.60;99.90
9033;DHT22;4551;53.164;8.210;2023-08-24T05:13:45;17.60;99.90
9033;DHT22;4551;53.164;8.210;2023-08-24T05:16:13;17.60;99.90
9033;DHT22;4551;53.164;8.210;2023-08-24T05:18:41;17.60;99.90
9033;DHT22;4551;53.164;8.210;2023-08-24T05:21:09;17.70;99.90
9033;DHT22;4551;53.164;8.210;2023-08-24T05:23:37;17.70;99.90
9033;DHT22;4551;53.164;8.210;2023-08-24T05:26:07;17.70;99.90
9033;DHT22;4551;53.164;8.210;2023-08-24T05:28:35;17.70;99.90
9033;DHT22;4551;53.164;8.210;2023-08-24T05:31:03;17.70;99.90
9033;DHT22;4551;53.164;8.210;2023-08-24T05:33:31;17.80;99.90
9033;DHT22;4551;53.164;8.210;2023-08-24T05:36:00;17.90;99.90
9033;DHT22;4551;53.164;8.210;2023-08-24T05:38:28;17.90;99.90
9033;DHT22;4551;53.164;8.210;2023-08-24T05:40:56;17.90;99.90
9033;DHT22;4551;53.164;8.210;2023-08-24T05:43:25;17.90;99.90
9033;DHT22;4551;53.164;8.210;2023-08-24T05:45:54;17.90;99.90
9033;DHT22;4551;53.164;8.210;2023-08-24T05:48:22;17.90;99.90
9033;DHT22;4551;53.164;8.210;2023-08-24T05:50:50;17.90;99.90
9033;DHT22;4551;53.164;8.210;2023-08-24T05:53:18;18.00;99.90
9033;DHT22;4551;53.164;8.210;2023-08-24T05:55:46;18.00;99.90
9033;DHT22;4551;53.164;8.210;2023-08-24T05:58:14;18.00;99.90
9033;DHT22;4551;53.164;8.210;2023-08-24T06:00:43;18.00;99.90
9033;DHT22;4551;53.164;8.210;2023-08-24T06:03:12;18.10;99.90
9033;DHT22;4551;53.164;8.210;2023-08-24T06:05:40;18.10;99.90
9033;DHT22;4551;53.164;8.210;2023-08-24T06:08:08;18.10;99.90
9033;DHT22;4551;53.164;8.210;2023-08-24T06:10:36;18.10;99.90
9033;DHT22;4551;53.164;8.210;2023-08-24T06:13:04;18.20;99.90
9033;DHT22;4551;53.164;8.210;2023-08-24T06:15:32;18.20;99.90
9033;DHT22;4551;53.164;8.210;2023-08-24T06:18:01;18.30;99.90
9033;DHT22;4551;53.164;8.210;2023-08-24T06:20:30;18.30;99.90
9033;DHT22;4551;53.164;8.210;2023-08-24T06:22:58;18.30;99.90
9033;DHT22;4551;53.164;8.210;2023-08-24T06:25:26;18.30;99.90
9033;DHT22;4551;53.164;8.210;2023-08-24T06:27:54;18.30;99.90
9033;DHT22;4551;53.164;8.210;2023-08-24T06:30:22;18.30;99.90
9033;DHT22;4551;53.164;8.210;2023-08-24T06:32:50;18.40;99.90
9033;DHT22;4551;53.164;8.210;2023-08-24T06:35:19;18.40;99.90
9033;DHT22;4551;53.164;8.210;2023-08-24T06:37:47;18.40;99.90
9033;DHT22;4551;53.164;8.210;2023-08-24T06:40:16;18.40;99.90
9033;DHT22;4551;53.164;8.210;2023-08-24T06:42:45;18.40;99.90
9033;DHT22;4551;53.164;8.210;2023-08-24T06:45:13;18.50;99.90
9033;DHT22;4551;53.164;8.210;2023-08-24T06:47:41;18.60;99.90
9033;DHT22;4551;53.164;8.210;2023-08-24T06:50:09;18.60;99.90
9033;DHT22;4551;53.164;8.210;2023-08-24T06:52:39;18.70;99.90
9033;DHT22;4551;53.164;8.210;2023-08-24T06:55:08;18.70;99.90
9033;DHT22;4551;53.164;8.210;2023-08-24T06:57:36;18.80;99.90
9033;DHT22;4551;53.164;8.210;2023-08-24T07:00:05;18.80;99.90
9033;DHT22;4551;53.164;8.210;2023-08-24T07:02:35;18.90;99.90
9033;DHT22;4551;53.164;8.210;2023-08-24T07:05:04;18.90;99.90
9033;DHT22;4551;53.164;8.210;2023-08-24T07:07:35;19.00;99.90
9033;DHT22;4551;53.164;8.210;2023-08-24T07:10:06;19.00;99.90
9033;DHT22;4551;53.164;8.210;2023-08-24T07:12:34;19.00;99.90
9033;DHT22;4551;53.164;8.210;2023-08-24T07:15:02;19.10;99.90
9033;DHT22;4551;53.164;8.210;2023-08-24T07:17:30;19.10;99.90
9033;DHT22;4551;53.164;8.210;2023-08-24T07:20:12;19.20;99.90
9033;DHT22;4551;53.164;8.210;2023-08-24T07:22:40;19.20;99.90
9033;DHT22;4551;53.164;8.210;2023-08-24T07:25:10;19.30;99.90
9033;DHT22;4551;53.164;8.210;2023-08-24T07:27:39;19.60;99.90
9033;DHT22;4551;53.164;8.210;2023-08-24T07:30:07;19.40;99.90
9033;DHT22;4551;53.164;8.210;2023-08-24T07:32:56;19.50;99.90
9033;DHT22;4551;53.164;8.210;2023-08-24T07:35:24;19.50;99.90
9033;DHT22;4551;53.164;8.210;2023-08-24T07:37:53;19.50;99.90
9033;DHT22;4551;53.164;8.210;2023-08-24T07:40:22;19.60;99.90
9033;DHT22;4551;53.164;8.210;2023-08-24T07:42:51;19.60;99.90
9033;DHT22;4551;53.164;8.210;2023-08-24T07:45:20;19.60;99.90
9033;DHT22;4551;53.164;8.210;2023-08-24T07:47:49;19.60;99.90
9033;DHT22;4551;53.164;8.210;2023-08-24T07:50:18;19.70;99.90
9033;DHT22;4551;53.164;8.210;2023-08-24T07:52:46;19.70;99.90
9033;DHT22;4551;53.164;8.210;2023-08-24T07:55:15;19.70;99.90
9033;DHT22;4551;53.164;8.210;2023-08-24T07:57:44;19.80;99.90
9033;DHT22;4551;53.164;8.210;2023-08-24T08:00:15;19.80;99.90
9033;DHT22;4551;53.164;8.210;2023-08-24T08:02:43;19.80;99.90
9033;DHT22;4551;53.164;8.210;2023-08-24T08:05:11;19.90;99.90
9033;DHT22;4551;53.164;8.210;2023-08-24T08:07:39;19.90;99.90
9033;DHT22;4551;53.164;8.210;2023-08-24T08:10:08;19.90;99.90
9033;DHT22;4551;53.164;8.210;2023-08-24T08:12:36;19.90;99.90
9033;DHT22;4551;53.164;8.210;2023-08-24T08:15:06;20.00;99.90
9033;DHT22;4551;53.164;8.210;2023-08-24T08:17:34;20.10;99.90
9033;DHT22;4551;53.164;8.210;2023-08-24T08:20:02;20.20;99.90
9033;DHT22;4551;53.164;8.210;2023-08-24T08:22:31;20.20;99.90
9033;DHT22;4551;53.164;8.210;2023-08-24T08:25:02;20.20;99.90
9033;DHT22;4551;53.164;8.210;2023-08-24T08:27:31;20.20;99.90
9033;DHT22;4551;53.164;8.210;2023-08-24T08:29:59;20.20;99.90
9033;DHT22;4551;53.164;8.210;2023-08-24T08:32:32;20.30;99.90
9033;DHT22;4551;53.164;8.210;2023-08-24T08:35:00;20.40;99.90
9033;DHT22;4551;53.164;8.210;2023-08-24T08:37:29;20.30;99.90
9033;DHT22;4551;53.164;8.210;2023-08-24T08:39:58;20.40;99.90
9033;DHT22;4551;53.164;8.210;2023-08-24T08:42:26;20.50;99.90
9033;DHT22;4551;53.164;8.210;2023-08-24T08:44:56;20.50;99.90
9033;DHT22;4551;53.164;8.210;2023-08-24T08:47:25;20.60;99.90
9033;DHT22;4551;53.164;8.210;2023-08-24T08:49:55;20.60;99.90
9033;DHT22;4551;53.164;8.210;2023-08-24T08:52:23;20.60;99.90
9033;DHT22;4551;53.164;8.210;2023-08-24T08:54:52;20.70;99.90
9033;DHT22;4551;53.164;8.210;2023-08-24T08:57:20;20.70;99.90
9033;DHT22;4551;53.164;8.210;2023-08-24T08:59:48;20.70;99.90
9033;DHT22;4551;53.164;8.210;2023-08-24T09:02:19;20.80;99.90
9033;DHT22;4551;53.164;8.210;2023-08-24T09:04:47;20.80;99.90
9033;DHT22;4551;53.164;8.210;2023-08-24T09:07:16;20.90;99.90
9033;DHT22;4551;53.164;8.210;2023-08-24T09:09:45;21.00;99.90
9033;DHT22;4551;53.164;8.210;2023-08-24T09:12:13;21.00;99.90
9033;DHT22;4551;53.164;8.210;2023-08-24T09:14:41;21.00;99.90
9033;DHT22;4551;53.164;8.210;2023-08-24T09:17:09;21.10;99.90
9033;DHT22;4551;53.164;8.210;2023-08-24T09:19:37;21.10;99.90
9033;DHT22;4551;53.164;8.210;2023-08-24T09:22:07;21.20;99.90
9033;DHT22;4551;53.164;8.210;2023-08-24T09:24:36;21.30;99.90
9033;DHT22;4551;53.164;8.210;2023-08-24T09:27:14;21.40;99.90
9033;DHT22;4551;53.164;8.210;2023-08-24T09:29:43;21.40;99.90
9033;DHT22;4551;53.164;8.210;2023-08-24T09:32:12;21.50;99.90
9033;DHT22;4551;53.164;8.210;2023-08-24T09:34:40;21.50;99.90
9033;DHT22;4551;53.164;8.210;2023-08-24T09:37:12;21.60;99.90
9033;DHT22;4551;53.164;8.210;2023-08-24T09:39:42;21.70;99.90
9033;DHT22;4551;53.164;8.210;2023-08-24T09:42:10;21.80;99.90
9033;DHT22;4551;53.164;8.210;2023-08-24T09:44:38;21.80;99.90
9033;DHT22;4551;53.164;8.210;2023-08-24T09:47:10;21.90;99.90
9033;DHT22;4551;53.164;8.210;2023-08-24T09:49:39;22.00;99.90
9033;DHT22;4551;53.164;8.210;2023-08-24T09:52:07;22.00;99.90
9033;DHT22;4551;53.164;8.210;2023-08-24T09:54:36;22.10;99.90
9033;DHT22;4551;53.164;8.210;2023-08-24T09:57:06;22.10;99.90
9033;DHT22;4551;53.164;8.210;2023-08-24T09:59:36;22.20;99.90
9033;DHT22;4551;53.164;8.210;2023-08-24T10:02:10;22.30;99.90
9033;DHT22;4551;53.164;8.210;2023-08-24T10:04:40;22.30;99.90
9033;DHT22;4551;53.164;8.210;2023-08-24T10:07:10;22.40;99.90
9033;DHT22;4551;53.164;8.210;2023-08-24T10:09:44;22.40;99.90
9033;DHT22;4551;53.164;8.210;2023-08-24T10:12:14;22.50;99.90
9033;DHT22;4551;53.164;8.210;2023-08-24T10:14:44;22.60;99.90
9033;DHT22;4551;53.164;8.210;2023-08-24T10:17:12;22.70;99.90
9033;DHT22;4551;53.164;8.210;2023-08-24T10:19:41;22.80;99.90
9033;DHT22;4551;53.164;8.210;2023-08-24T10:22:10;22.90;99.90
9033;DHT22;4551;53.164;8.210;2023-08-24T10:24:38;23.00;99.90
9033;DHT22;4551;53.164;8.210;2023-08-24T10:27:06;23.10;99.90
9033;DHT22;4551;53.164;8.210;2023-08-24T10:29:38;23.10;99.90
9033;DHT22;4551;53.164;8.210;2023-08-24T10:32:06;23.20;99.90
9033;DHT22;4551;53.164;8.210;2023-08-24T10:34:34;23.30;99.90
9033;DHT22;4551;53.164;8.210;2023-08-24T10:37:09;23.30;99.90
9033;DHT22;4551;53.164;8.210;2023-08-24T10:39:38;23.40;99.90
9033;DHT22;4551;53.164;8.210;2023-08-24T10:42:11;23.50;99.90
9033;DHT22;4551;53.164;8.210;2023-08-24T10:44:45;23.50;99.90
9033;DHT22;4551;53.164;8.210;2023-08-24T10:47:14;23.60;99.90
9033;DHT22;4551;53.164;8.210;2023-08-24T10:49:42;23.70;99.90
9033;DHT22;4551;53.164;8.210;2023-08-24T10:52:16;23.70;99.90
9033;DHT22;4551;53.164;8.210;2023-08-24T10:54:45;23.70;99.90
9033;DHT22;4551;53.164;8.210;2023-08-24T10:57:18;23.90;99.90
9033;DHT22;4551;53.164;8.210;2023-08-24T11:00:02;23.80;99.90
9033;DHT22;4551;53.164;8.210;2023-08-24T11:02:42;23.90;99.90
9033;DHT22;4551;53.164;8.210;2023-08-24T11:05:18;24.00;99.90
9033;DHT22;4551;53.164;8.210;2023-08-24T11:07:50;24.00;99.90
9033;DHT22;4551;53.164;8.210;2023-08-24T11:10:18;24.10;99.90
9033;DHT22;4551;53.164;8.210;2023-08-24T11:13:06;24.20;99.90
9033;DHT22;4551;53.164;8.210;2023-08-24T11:15:36;24.30;99.90
9033;DHT22;4551;53.164;8.210;2023-08-24T11:18:11;24.30;99.90
9033;DHT22;4551;53.164;8.210;2023-08-24T11:20:39;24.40;99.90
9033;DHT22;4551;53.164;8.210;2023-08-24T11:23:09;24.50;99.90
9033;DHT22;4551;53.164;8.210;2023-08-24T11:25:37;24.50;99.90
9033;DHT22;4551;53.164;8.210;2023-08-24T11:28:06;24.50;99.90
9033;DHT22;4551;53.164;8.210;2023-08-24T11:30:36;24.60;99.90
9033;DHT22;4551;53.164;8.210;2023-08-24T11:33:04;24.70;99.90
9033;DHT22;4551;53.164;8.210;2023-08-24T11:35:35;24.80;99.90
9033;DHT22;4551;53.164;8.210;2023-08-24T11:38:03;24.90;99.90
9033;DHT22;4551;53.164;8.210;2023-08-24T11:40:34;25.00;99.90
9033;DHT22;4551;53.164;8.210;2023-08-24T11:43:02;25.10;99.90
9033;DHT22;4551;53.164;8.210;2023-08-24T11:45:31;25.20;99.90
9033;DHT22;4551;53.164;8.210;2023-08-24T11:48:01;25.20;99.90
9033;DHT22;4551;53.164;8.210;2023-08-24T11:50:32;25.20;99.90
9033;DHT22;4551;53.164;8.210;2023-08-24T11:53:01;25.30;99.90
9033;DHT22;4551;53.164;8.210;2023-08-24T11:55:29;25.40;99.90
9033;DHT22;4551;53.164;8.210;2023-08-24T11:57:57;25.50;99.90
9033;DHT22;4551;53.164;8.210;2023-08-24T12:00:26;25.60;99.90
9033;DHT22;4551;53.164;8.210;2023-08-24T12:02:55;25.70;99.90
9033;DHT22;4551;53.164;8.210;2023-08-24T12:05:26;25.70;99.90
9033;DHT22;4551;53.164;8.210;2023-08-24T12:07:55;25.80;99.90
9033;DHT22;4551;53.164;8.210;2023-08-24T12:10:23;25.80;99.90
9033;DHT22;4551;53.164;8.210;2023-08-24T12:13:00;25.80;99.90
9033;DHT22;4551;53.164;8.210;2023-08-24T12:15:28;25.90;99.90
9033;DHT22;4551;53.164;8.210;2023-08-24T12:17:57;25.90;99.90
9033;DHT22;4551;53.164;8.210;2023-08-24T12:20:26;25.90;99.90
9033;DHT22;4551;53.164;8.210;2023-08-24T12:22:55;25.90;99.90
9033;DHT22;4551;53.164;8.210;2023-08-24T12:25:23;25.90;99.90
9033;DHT22;4551;53.164;8.210;2023-08-24T12:27:51;26.00;99.90
9033;DHT22;4551;53.164;8.210;2023-08-24T12:30:20;26.00;99.90
9033;DHT22;4551;53.164;8.210;2023-08-24T12:32:48;26.00;99.90
9033;DHT22;4551;53.164;8.210;2023-08-24T12:35:19;26.00;99.90
9033;DHT22;4551;53.164;8.210;2023-08-24T12:37:48;26.00;99.90
9033;DHT22;4551;53.164;8.210;2023-08-24T12:40:16;25.90;99.90
9033;DHT22;4551;53.164;8.210;2023-08-24T12:42:44;26.00;99.90
9033;DHT22;4551;53.164;8.210;2023-08-24T12:45:12;25.90;99.90
9033;DHT22;4551;53.164;8.210;2023-08-24T12:47:40;26.00;99.90
9033;DHT22;4551;53.164;8.210;2023-08-24T12:50:09;25.90;99.90
9033;DHT22;4551;53.164;8.210;2023-08-24T12:52:37;25.90;99.90
9033;DHT22;4551;53.164;8.210;2023-08-24T12:55:06;25.90;99.90
9033;DHT22;4551;53.164;8.210;2023-08-24T12:57:34;25.90;99.90
9033;DHT22;4551;53.164;8.210;2023-08-24T13:00:02;25.90;99.90
9033;DHT22;4551;53.164;8.210;2023-08-24T13:02:32;26.00;99.90
9033;DHT22;4551;53.164;8.210;2023-08-24T13:05:05;25.90;99.90
9033;DHT22;4551;53.164;8.210;2023-08-24T13:07:33;25.90;99.90
9033;DHT22;4551;53.164;8.210;2023-08-24T13:10:02;25.90;99.90
9033;DHT22;4551;53.164;8.210;2023-08-24T13:12:32;26.00;99.90
9033;DHT22;4551;53.164;8.210;2023-08-24T13:15:00;26.00;99.90
9033;DHT22;4551;53.164;8.210;2023-08-24T13:17:29;26.10;99.90
9033;DHT22;4551;53.164;8.210;2023-08-24T13:19:57;26.10;99.90
9033;DHT22;4551;53.164;8.210;2023-08-24T13:22:25;26.10;99.90
9033;DHT22;4551;53.164;8.210;2023-08-24T13:24:53;26.20;99.90
9033;DHT22;4551;53.164;8.210;2023-08-24T13:27:21;26.20;99.90
9033;DHT22;4551;53.164;8.210;2023-08-24T13:29:51;26.20;99.90
9033;DHT22;4551;53.164;8.210;2023-08-24T13:32:23;26.20;99.90
9033;DHT22;4551;53.164;8.210;2023-08-24T13:34:51;26.20;99.90
9033;DHT22;4551;53.164;8.210;2023-08-24T13:37:19;26.20;99.90
9033;DHT22;4551;53.164;8.210;2023-08-24T13:39:47;26.20;99.90
9033;DHT22;4551;53.164;8.210;2023-08-24T13:42:15;26.20;99.90
9033;DHT22;4551;53.164;8.210;2023-08-24T13:44:43;26.20;99.90
9033;DHT22;4551;53.164;8.210;2023-08-24T13:47:13;26.20;99.90
9033;DHT22;4551;53.164;8.210;2023-08-24T13:49:41;26.30;99.90
9033;DHT22;4551;53.164;8.210;2023-08-24T13:52:09;26.30;99.90
9033;DHT22;4551;53.164;8.210;2023-08-24T13:54:37;26.30;99.90
9033;DHT22;4551;53.164;8.210;2023-08-24T13:57:05;26.30;99.90
9033;DHT22;4551;53.164;8.210;2023-08-24T13:59:33;26.30;99.90
9033;DHT22;4551;53.164;8.210;2023-08-24T14:02:01;26.30;99.90
9033;DHT22;4551;53.164;8.210;2023-08-24T14:04:31;26.30;99.90
9033;DHT22;4551;53.164;8.210;2023-08-24T14:06:59;26.30;99.90
9033;DHT22;4551;53.164;8.210;2023-08-24T14:09:28;26.30;99.90
9033;DHT22;4551;53.164;8.210;2023-08-24T14:11:56;26.30;99.90
9033;DHT22;4551;53.164;8.210;2023-08-24T14:14:24;26.30;99.90
9033;DHT22;4551;53.164;8.210;2023-08-24T14:16:55;26.30;99.90
9033;DHT22;4551;53.164;8.210;2023-08-24T14:19:23;26.20;99.90
9033;DHT22;4551;53.164;8.210;2023-08-24T14:21:54;26.20;99.90
9033;DHT22;4551;53.164;8.210;2023-08-24T14:24:22;26.20;99.90
9033;DHT22;4551;53.164;8.210;2023-08-24T14:26:53;26.20;99.90
9033;DHT22;4551;53.164;8.210;2023-08-24T14:29:22;26.10;99.90
9033;DHT22;4551;53.164;8.210;2023-08-24T14:31:50;26.10;99.90
9033;DHT22;4551;53.164;8.210;2023-08-24T14:34:18;26.10;99.90
9033;DHT22;4551;53.164;8.210;2023-08-24T14:36:46;26.10;99.90
9033;DHT22;4551;53.164;8.210;2023-08-24T14:39:15;26.10;99.90
9033;DHT22;4551;53.164;8.210;2023-08-24T14:41:43;26.00;99.90
9033;DHT22;4551;53.164;8.210;2023-08-24T14:44:11;26.00;99.90
9033;DHT22;4551;53.164;8.210;2023-08-24T14:46:39;26.00;99.90
9033;DHT22;4551;53.164;8.210;2023-08-24T14:49:07;25.90;99.90
9033;DHT22;4551;53.164;8.210;2023-08-24T14:51:36;25.90;99.90
9033;DHT22;4551;53.164;8.210;2023-08-24T14:54:04;25.90;99.90
9033;DHT22;4551;53.164;8.210;2023-08-24T14:56:35;25.80;99.90
9033;DHT22;4551;53.164;8.210;2023-08-24T14:59:03;25.80;99.90
9033;DHT22;4551;53.164;8.210;2023-08-24T15:01:31;25.80;99.90
9033;DHT22;4551;53.164;8.210;2023-08-24T15:03:59;25.80;99.90
9033;DHT22;4551;53.164;8.210;2023-08-24T15:06:27;25.80;99.90
9033;DHT22;4551;53.164;8.210;2023-08-24T15:08:55;25.80;99.90
9033;DHT22;4551;53.164;8.210;2023-08-24T15:11:25;25.70;99.90
9033;DHT22;4551;53.164;8.210;2023-08-24T15:13:54;25.70;99.90
9033;DHT22;4551;53.164;8.210;2023-08-24T15:16:22;25.70;99.90
9033;DHT22;4551;53.164;8.210;2023-08-24T15:18:50;25.60;99.90
9033;DHT22;4551;53.164;8.210;2023-08-24T15:21:18;25.60;99.90
9033;DHT22;4551;53.164;8.210;2023-08-24T15:23:46;25.60;99.90
9033;DHT22;4551;53.164;8.210;2023-08-24T15:26:14;25.60;99.90
9033;DHT22;4551;53.164;8.210;2023-08-24T15:31:27;25.60;99.90
9033;DHT22;4551;53.164;8.210;2023-08-24T15:33:55;25.50;99.90
9033;DHT22;4551;53.164;8.210;2023-08-24T15:36:23;25.50;99.90
9033;DHT22;4551;53.164;8.210;2023-08-24T15:38:51;25.50;99.90
9033;DHT22;4551;53.164;8.210;2023-08-24T15:41:22;25.50;99.90
9033;DHT22;4551;53.164;8.210;2023-08-24T15:43:50;25.40;99.90
9033;DHT22;4551;53.164;8.210;2023-08-24T15:46:18;25.40;99.90
9033;DHT22;4551;53.164;8.210;2023-08-24T15:48:48;25.40;99.90
9033;DHT22;4551;53.164;8.210;2023-08-24T15:51:17;25.30;99.90
9033;DHT22;4551;53.164;8.210;2023-08-24T15:53:45;25.30;99.90
9033;DHT22;4551;53.164;8.210;2023-08-24T15:56:13;25.30;99.90
9033;DHT22;4551;53.164;8.210;2023-08-24T15:58:42;25.20;99.90
9033;DHT22;4551;53.164;8.210;2023-08-24T16:01:10;25.20;99.90
9033;DHT22;4551;53.164;8.210;2023-08-24T16:03:38;25.20;99.90
9033;DHT22;4551;53.164;8.210;2023-08-24T16:06:11;25.20;99.90
9033;DHT22;4551;53.164;8.210;2023-08-24T16:08:39;25.20;99.90
9033;DHT22;4551;53.164;8.210;2023-08-24T16:11:07;25.10;99.90
9033;DHT22;4551;53.164;8.210;2023-08-24T16:13:35;25.10;99.90
9033;DHT22;4551;53.164;8.210;2023-08-24T16:16:03;25.00;99.90